createdAt,value
2022-09-12T00:00:44.108Z,101439.25
2022-09-12T00:03:16.561Z,101427.13
2022-09-12T00:05:48.875Z,101421.22
2022-09-12T00:08:21.225Z,101418.47
2022-09-12T00:10:53.540Z,101424.47
2022-09-12T00:13:25.813Z,101420.56
2022-09-12T00:15:58.080Z,101418.16
2022-09-12T00:18:30.368Z,101406.28
2022-09-12T00:21:04.603Z,101410.22
2022-09-12T00:23:37.318Z,101407.09
2022-09-12T00:26:09.702Z,101406.75
2022-09-12T00:28:42.232Z,101415.03
2022-09-12T00:31:16.413Z,101407.94
2022-09-12T00:33:48.742Z,101409.53
2022-09-12T00:36:22.721Z,101395.28
2022-09-12T00:38:55.138Z,101395.72
2022-09-12T00:41:30.120Z,101396.88
2022-09-12T00:44:22.675Z,101396.88
2022-09-12T00:46:57.695Z,101398.09
2022-09-12T00:49:32.968Z,101399.28
2022-09-12T00:52:20.837Z,101393.72
2022-09-12T00:54:57.724Z,101399.63
2022-09-12T00:57:32.822Z,101389.81
2022-09-12T01:00:15.122Z,101387.84
2022-09-12T01:02:50.185Z,101382.41
2022-09-12T01:05:23.537Z,101380.47
2022-09-12T01:07:56.895Z,101374.94
2022-09-12T01:10:29.506Z,101372.19
2022-09-12T01:13:03.437Z,101376.53
2022-09-12T01:15:39.549Z,101378.19
2022-09-12T01:18:21.096Z,101372.34
2022-09-12T01:20:53.471Z,101366.81
2022-09-12T01:23:48.150Z,101363.59
2022-09-12T01:26:35.508Z,101362.00
2022-09-12T01:29:20.109Z,101370.78
2022-09-12T01:32:00.677Z,101360.22
2022-09-12T01:34:42.010Z,101362.59
2022-09-12T01:37:14.262Z,101367.31
2022-09-12T01:39:56.329Z,101354.59
2022-09-12T01:42:31.618Z,101347.53
2022-09-12T01:45:16.584Z,101343.66
2022-09-12T01:47:57.893Z,101350.03
2022-09-12T01:50:32.281Z,101357.19
2022-09-12T01:53:12.366Z,101342.16
2022-09-12T01:56:07.324Z,101341.66
2022-09-12T01:58:43.670Z,101339.72
2022-09-12T02:01:30.708Z,101341.28
2022-09-12T02:04:09.256Z,101341.72
2022-09-12T02:06:47.233Z,101331.50
2022-09-12T02:09:29.214Z,101329.97
2022-09-12T02:12:01.661Z,101321.00
2022-09-12T02:14:37.552Z,101333.22
2022-09-12T02:17:12.156Z,101325.72
2022-09-12T02:19:47.221Z,101325.78
2022-09-12T02:22:21.519Z,101331.31
2022-09-12T02:24:56.979Z,101321.81
2022-09-12T02:27:41.017Z,101327.34
2022-09-12T02:30:17.551Z,101319.47
2022-09-12T02:32:56.400Z,101327.41
2022-09-12T02:35:39.067Z,101325.00
2022-09-12T02:38:14.607Z,101326.59
2022-09-12T02:40:46.903Z,101334.50
2022-09-12T02:43:19.178Z,101329.41
2022-09-12T02:45:51.504Z,101325.88
2022-09-12T02:48:26.250Z,101330.97
2022-09-12T02:50:58.711Z,101321.06
2022-09-12T02:53:30.979Z,101317.94
2022-09-12T02:56:05.957Z,101314.38
2022-09-12T02:58:38.399Z,101316.28
2022-09-12T03:01:16.538Z,101308.44
2022-09-12T03:03:59.196Z,101313.16
2022-09-12T03:06:50.092Z,101306.09
2022-09-12T03:09:28.530Z,101299.34
2022-09-12T03:12:09.916Z,101297.34
2022-09-12T03:14:45.202Z,101293.78
2022-09-12T03:17:36.740Z,101295.31
2022-09-12T03:20:09.498Z,101295.34
2022-09-12T03:22:51.287Z,101293.41
2022-09-12T03:25:27.973Z,101295.31
2022-09-12T03:28:07.498Z,101290.91
2022-09-12T03:30:44.204Z,101288.47
2022-09-12T03:33:23.625Z,101292.31
2022-09-12T03:35:56.066Z,101300.91
2022-09-12T03:38:28.321Z,101291.38
2022-09-12T03:41:00.843Z,101294.84
2022-09-12T03:43:33.193Z,101295.59
2022-09-12T03:46:05.678Z,101295.56
2022-09-12T03:48:38.389Z,101291.19
2022-09-12T03:51:11.359Z,101295.53
2022-09-12T03:53:43.619Z,101291.91
2022-09-12T03:56:15.986Z,101287.97
2022-09-12T03:58:48.727Z,101286.75
2022-09-12T04:01:21.545Z,101285.53
2022-09-12T04:03:53.876Z,101289.88
2022-09-12T04:06:26.484Z,101282.38
2022-09-12T04:08:59.080Z,101283.22
2022-09-12T04:11:32.225Z,101275.34
2022-09-12T04:14:04.488Z,101281.72
2022-09-12T04:16:36.806Z,101278.56
2022-09-12T04:19:11.477Z,101278.94
2022-09-12T04:21:43.838Z,101267.47
2022-09-12T04:24:16.145Z,101271.38
2022-09-12T04:26:48.466Z,101272.53
2022-09-12T04:29:20.770Z,101265.78
2022-09-12T04:31:53.035Z,101267.31
2022-09-12T04:34:25.452Z,101268.03
2022-09-12T04:36:57.841Z,101263.66
2022-09-12T04:39:30.355Z,101268.00
2022-09-12T04:42:04.543Z,101260.47
2022-09-12T04:44:37.523Z,101268.72
2022-09-12T04:47:09.824Z,101267.09
2022-09-12T04:49:43.197Z,101258.41
2022-09-12T04:52:15.450Z,101259.94
2022-09-12T04:54:50.072Z,101254.84
2022-09-12T04:57:22.352Z,101251.28
2022-09-12T04:59:54.731Z,101244.13
2022-09-12T05:02:27.326Z,101250.41
2022-09-12T05:04:59.666Z,101253.88
2022-09-12T05:07:32.466Z,101254.25
2022-09-12T05:10:04.856Z,101247.88
2022-09-12T05:12:37.228Z,101260.44
2022-09-12T05:15:09.682Z,101269.88
2022-09-12T05:17:41.953Z,101264.28
2022-09-12T05:20:14.396Z,101263.50
2022-09-12T05:22:46.688Z,101269.25
2022-09-12T05:25:18.948Z,101267.22
2022-09-12T05:27:54.554Z,101263.97
2022-09-12T05:30:26.885Z,101271.06
2022-09-12T05:32:59.442Z,101277.69
2022-09-12T05:35:33.281Z,101264.59
2022-09-12T05:38:06.174Z,101269.28
2022-09-12T05:40:38.510Z,101266.88
2022-09-12T05:43:12.404Z,101271.88
2022-09-12T05:45:44.804Z,101263.88
2022-09-12T05:48:17.115Z,101270.44
2022-09-12T05:50:49.796Z,101266.75
2022-09-12T05:53:22.055Z,101271.38
2022-09-12T05:56:08.542Z,101270.03
2022-09-12T05:58:42.596Z,101273.88
2022-09-12T06:01:16.077Z,101277.97
2022-09-12T06:03:49.868Z,101276.63
2022-09-12T06:06:23.523Z,101285.22
2022-09-12T06:08:57.251Z,101290.59
2022-09-12T06:11:31.175Z,101294.44
2022-09-12T06:14:03.840Z,101295.84
2022-09-12T06:16:37.180Z,101302.06
2022-09-12T06:19:14.246Z,101301.31
2022-09-12T06:21:49.368Z,101301.22
2022-09-12T06:24:21.862Z,101298.47
2022-09-12T06:26:54.258Z,101298.81
2022-09-12T06:29:26.602Z,101304.00
2022-09-12T06:31:58.887Z,101300.88
2022-09-12T06:34:31.207Z,101304.16
2022-09-12T06:37:03.994Z,101288.81
2022-09-12T06:39:38.333Z,101292.81
2022-09-12T06:42:10.813Z,101291.94
2022-09-12T06:44:44.183Z,101288.22
2022-09-12T06:47:16.441Z,101286.03
2022-09-12T06:49:51.074Z,101288.09
2022-09-12T06:52:23.379Z,101290.94
2022-09-12T06:54:55.721Z,101285.03
2022-09-12T06:57:30.375Z,101292.06
2022-09-12T07:00:05.346Z,101293.31
2022-09-12T07:02:37.793Z,101295.53
2022-09-12T07:05:11.069Z,101294.28
2022-09-12T07:07:43.351Z,101283.84
2022-09-12T07:10:19.067Z,101284.84
2022-09-12T07:12:54.601Z,101284.84
2022-09-12T07:15:27.493Z,101290.41
2022-09-12T07:18:00.902Z,101290.19
2022-09-12T07:20:33.224Z,101300.75
2022-09-12T07:23:05.542Z,101301.66
2022-09-12T07:25:37.976Z,101283.50
2022-09-12T07:28:10.342Z,101284.84
2022-09-12T07:30:42.692Z,101284.94
2022-09-12T07:33:15.127Z,101282.50
2022-09-12T07:35:47.486Z,101287.88
2022-09-12T07:38:20.231Z,101282.31
2022-09-12T07:40:52.482Z,101287.88
2022-09-12T07:43:25.480Z,101277.69
2022-09-12T07:45:57.816Z,101278.78
2022-09-12T07:48:30.194Z,101281.75
2022-09-12T07:51:03.998Z,101287.19
2022-09-12T07:53:40.558Z,101300.47
2022-09-12T07:56:13.153Z,101298.13
2022-09-12T07:58:45.832Z,101309.06
2022-09-12T08:01:19.532Z,101309.69
2022-09-12T08:03:57.323Z,101316.59
2022-09-12T08:06:32.224Z,101306.63
2022-09-12T08:09:05.334Z,101319.16
2022-09-12T08:11:37.595Z,101313.78
2022-09-12T08:14:09.846Z,101318.50
2022-09-12T08:16:42.604Z,101322.00
2022-09-12T08:19:14.875Z,101317.28
2022-09-12T08:21:49.155Z,101326.66
2022-09-12T08:24:21.432Z,101321.13
2022-09-12T08:26:53.711Z,101330.28
2022-09-12T08:29:25.979Z,101334.81
2022-09-12T08:31:58.326Z,101332.00
2022-09-12T08:34:30.630Z,101335.50
2022-09-12T08:37:02.899Z,101335.66
2022-09-12T08:39:35.256Z,101327.47
2022-09-12T08:44:44.013Z,101332.53
2022-09-12T08:47:26.775Z,101336.81
2022-09-12T08:49:59.097Z,101345.56
2022-09-12T08:52:38.862Z,101344.47
2022-09-12T08:55:23.872Z,101348.66
2022-09-12T08:57:56.246Z,101347.72
2022-09-12T09:00:34.281Z,101346.19
2022-09-12T09:03:20.961Z,101342.59
2022-09-12T09:05:56.738Z,101342.06
2022-09-12T09:08:48.011Z,101326.06
2022-09-12T09:11:37.647Z,101327.56
2022-09-12T09:14:28.806Z,101328.72
2022-09-12T09:17:02.631Z,101328.53
2022-09-12T09:19:37.963Z,101331.34
2022-09-12T09:22:21.416Z,101332.56
2022-09-12T09:24:59.555Z,101328.41
2022-09-12T09:27:42.583Z,101331.91
2022-09-12T09:30:16.567Z,101322.53
2022-09-12T09:32:54.102Z,101317.88
2022-09-12T09:35:45.514Z,101325.97
2022-09-12T09:38:23.063Z,101324.53
2022-09-12T09:41:07.075Z,101324.81
2022-09-12T09:43:39.676Z,101318.63
2022-09-12T09:46:12.283Z,101322.06
2022-09-12T09:48:46.980Z,101319.13
2022-09-12T09:51:26.055Z,101320.66
2022-09-12T09:54:01.887Z,101317.19
2022-09-12T09:56:35.894Z,101303.25
2022-09-12T09:59:28.467Z,101307.09
2022-09-12T10:02:03.881Z,101307.03
2022-09-12T10:04:41.375Z,101295.41
2022-09-12T10:07:23.636Z,101295.28
2022-09-12T10:10:04.582Z,101291.16
2022-09-12T10:12:36.894Z,101286.38
2022-09-12T10:15:22.541Z,101287.41
2022-09-12T10:17:55.770Z,101271.84
2022-09-12T10:20:33.972Z,101277.94
2022-09-12T10:23:23.509Z,101278.31
2022-09-12T10:25:57.813Z,101270.47
2022-09-12T10:28:39.316Z,101268.63
2022-09-12T10:31:15.309Z,101264.13
2022-09-12T10:33:52.794Z,101249.03
2022-09-12T10:36:25.669Z,101258.41
2022-09-12T10:39:00.629Z,101242.97
2022-09-12T10:41:37.913Z,101246.84
2022-09-12T10:44:31.330Z,101243.56
2022-09-12T10:47:20.512Z,101233.19
2022-09-12T10:49:52.798Z,101238.88
2022-09-12T10:52:25.346Z,101240.09
2022-09-12T10:54:57.735Z,101232.50
2022-09-12T10:57:44.718Z,101232.72
2022-09-12T11:00:17.835Z,101213.75
2022-09-12T11:03:08.213Z,101217.72
2022-09-12T11:05:49.673Z,101219.50
2022-09-12T11:08:31.216Z,101210.31
2022-09-12T11:11:13.729Z,101209.78
2022-09-12T11:14:10.586Z,101203.59
2022-09-12T11:16:49.017Z,101212.25
2022-09-12T11:19:29.103Z,101210.41
2022-09-12T11:22:05.342Z,101208.88
2022-09-12T11:24:47.125Z,101204.88
2022-09-12T11:27:28.088Z,101193.25
2022-09-12T11:30:04.083Z,101202.78
2022-09-12T11:32:36.634Z,101202.34
2022-09-12T11:35:09.009Z,101187.97
2022-09-12T11:37:47.984Z,101198.13
2022-09-12T11:40:29.995Z,101189.31
2022-09-12T11:43:11.959Z,101195.03
2022-09-12T11:45:45.260Z,101189.88
2022-09-12T11:48:32.667Z,101184.91
2022-09-12T11:51:07.589Z,101192.91
2022-09-12T11:53:42.407Z,101202.22
2022-09-12T11:56:16.939Z,101192.16
2022-09-12T11:58:52.650Z,101183.50
2022-09-12T12:01:28.613Z,101193.59
2022-09-12T12:04:05.921Z,101187.63
2022-09-12T12:06:47.023Z,101194.88
2022-09-12T12:09:19.605Z,101196.06
2022-09-12T12:11:54.340Z,101186.03
2022-09-12T12:14:42.630Z,101186.63
2022-09-12T12:17:20.116Z,101178.22
2022-09-12T12:20:04.937Z,101172.88
2022-09-12T12:22:50.776Z,101173.88
2022-09-12T12:25:29.624Z,101181.19
2022-09-12T12:28:02.340Z,101170.38
2022-09-12T12:30:40.967Z,101168.50
2022-09-12T12:33:13.318Z,101168.69
2022-09-12T12:36:03.195Z,101172.00
2022-09-12T12:38:36.530Z,101173.84
2022-09-12T12:41:17.782Z,101163.56
2022-09-12T12:43:50.913Z,101162.44
2022-09-12T12:46:25.764Z,101167.31
2022-09-12T12:49:24.873Z,101159.75
2022-09-12T12:51:59.076Z,101160.31
2022-09-12T12:54:49.473Z,101145.53
2022-09-12T12:57:21.810Z,101136.84
2022-09-12T13:00:00.313Z,101144.53
2022-09-12T13:02:35.082Z,101133.91
2022-09-12T13:05:17.384Z,101141.44
2022-09-12T13:08:10.439Z,101132.75
2022-09-12T13:10:50.366Z,101125.38
2022-09-12T13:13:28.943Z,101118.22
2022-09-12T13:16:01.366Z,101120.13
2022-09-12T13:18:53.969Z,101125.84
2022-09-12T13:21:26.453Z,101102.66
2022-09-12T13:24:03.751Z,101106.44
2022-09-12T13:26:41.021Z,101100.97
2022-09-12T13:29:23.834Z,101091.97
2022-09-12T13:31:57.555Z,101086.84
2022-09-12T13:34:31.683Z,101101.25
2022-09-12T13:37:13.341Z,101096.91
2022-09-12T13:40:05.388Z,101086.28
2022-09-12T13:42:48.621Z,101093.06
2022-09-12T13:45:26.816Z,101090.84
2022-09-12T13:48:03.704Z,101080.75
2022-09-12T13:50:50.264Z,101082.78
2022-09-12T13:53:25.069Z,101072.81
2022-09-12T13:55:58.815Z,101079.66
2022-09-12T13:58:32.937Z,101068.97
2022-09-12T14:01:08.189Z,101074.06
2022-09-12T14:04:07.758Z,101073.34
2022-09-12T14:06:50.402Z,101066.88
2022-09-12T14:09:25.417Z,101057.34
2022-09-12T14:11:58.696Z,101053.63
2022-09-12T14:14:36.011Z,101052.59
2022-09-12T14:17:23.660Z,101040.81
2022-09-12T14:20:01.609Z,101037.72
2022-09-12T14:22:36.472Z,101032.06
2022-09-12T14:25:19.524Z,101024.28
2022-09-12T14:27:54.417Z,101027.03
2022-09-12T14:30:30.389Z,101023.31
2022-09-12T14:33:03.609Z,101030.66
2022-09-12T14:35:43.385Z,101028.69
2022-09-12T14:38:16.027Z,101027.63
2022-09-12T14:40:50.159Z,101020.41
2022-09-12T14:43:27.861Z,101018.75
2022-09-12T14:46:00.222Z,101005.94
2022-09-12T14:48:37.614Z,101009.22
2022-09-12T14:51:17.372Z,100995.66
2022-09-12T14:53:50.236Z,101002.03
2022-09-12T14:56:41.025Z,100997.09
2022-09-12T14:59:40.020Z,101001.41
2022-09-12T15:02:21.742Z,100998.09
2022-09-12T15:05:09.901Z,100998.69
2022-09-12T15:07:43.962Z,100998.31
2022-09-12T15:10:22.053Z,100997.97
2022-09-12T15:13:23.557Z,100995.69
2022-09-12T15:15:59.268Z,100986.50
2022-09-12T15:18:31.632Z,100991.44
2022-09-12T15:21:05.864Z,100979.72
2022-09-12T15:23:45.764Z,100971.53
2022-09-12T15:26:22.452Z,100971.44
2022-09-12T15:28:54.723Z,100978.97
2022-09-12T15:31:28.066Z,100970.69
2022-09-12T15:34:01.070Z,100965.88
2022-09-12T15:36:33.648Z,100967.72
2022-09-12T15:39:05.976Z,100970.88
2022-09-12T15:41:38.453Z,100969.81
2022-09-12T15:44:12.222Z,100962.50
2022-09-12T15:46:45.158Z,100958.03
2022-09-12T15:49:17.830Z,100955.50
2022-09-12T15:51:50.231Z,100958.44
2022-09-12T15:54:22.529Z,100959.94
2022-09-12T15:56:55.033Z,100962.53
2022-09-12T15:59:27.286Z,100953.84
2022-09-12T16:01:59.968Z,100963.44
2022-09-12T16:04:32.412Z,100957.66
2022-09-12T16:07:04.773Z,100957.44
2022-09-12T16:09:37.212Z,100949.84
2022-09-12T16:12:09.529Z,100944.75
2022-09-12T16:14:44.921Z,100932.97
2022-09-12T16:17:17.225Z,100931.69
2022-09-12T16:19:49.545Z,100928.94
2022-09-12T16:22:21.888Z,100924.09
2022-09-12T16:24:54.330Z,100920.81
2022-09-12T16:27:26.833Z,100918.53
2022-09-12T16:29:59.201Z,100914.41
2022-09-12T16:32:31.571Z,100911.34
2022-09-12T16:35:04.138Z,100913.44
2022-09-12T16:37:36.639Z,100913.44
2022-09-12T16:40:09.591Z,100915.97
2022-09-12T16:42:43.740Z,100924.47
2022-09-12T16:45:16.274Z,100924.44
2022-09-12T16:47:48.605Z,100909.84
2022-09-12T16:50:20.884Z,100912.09
2022-09-12T16:52:53.167Z,100908.75
2022-09-12T16:55:25.473Z,100901.31
2022-09-12T16:57:57.744Z,100895.97
2022-09-12T17:00:30.032Z,100903.09
2022-09-12T17:03:02.392Z,100888.28
2022-09-12T17:05:34.700Z,100891.06
2022-09-12T17:08:08.172Z,100887.72
2022-09-12T17:10:40.901Z,100885.66
2022-09-12T17:13:13.167Z,100884.09
2022-09-12T17:15:45.637Z,100893.03
2022-09-12T17:18:18.083Z,100878.09
2022-09-12T17:20:50.428Z,100879.53
2022-09-12T17:23:22.889Z,100868.69
2022-09-12T17:25:55.568Z,100862.91
2022-09-12T17:28:28.007Z,100860.44
2022-09-12T17:31:01.513Z,100853.56
2022-09-12T17:33:34.387Z,100844.50
2022-09-12T17:36:11.195Z,100828.25
2022-09-12T17:38:44.582Z,100833.19
2022-09-12T17:41:24.172Z,100833.75
2022-09-12T17:43:57.259Z,100834.91
2022-09-12T17:46:31.817Z,100830.16
2022-09-12T17:49:05.875Z,100834.06
2022-09-12T17:51:38.165Z,100837.75
2022-09-12T17:54:11.819Z,100844.94
2022-09-12T17:56:49.601Z,100836.09
2022-09-12T17:59:24.640Z,100842.50
2022-09-12T18:02:16.250Z,100845.44
2022-09-12T18:04:48.675Z,100852.59
2022-09-12T18:07:21.517Z,100856.47
2022-09-12T18:09:54.054Z,100860.63
2022-09-12T18:12:28.464Z,100845.78
2022-09-12T18:15:01.906Z,100835.84
2022-09-12T18:17:34.204Z,100836.78
2022-09-12T18:20:10.178Z,100844.91
2022-09-12T18:22:42.548Z,100842.03
2022-09-12T18:25:14.917Z,100846.75
2022-09-12T18:27:47.363Z,100845.88
2022-09-12T18:30:22.098Z,100845.94
2022-09-12T18:32:54.552Z,100845.25
2022-09-12T18:35:26.928Z,100843.50
2022-09-12T18:37:59.318Z,100841.75
2022-09-12T18:40:31.618Z,100848.69
2022-09-12T18:43:03.893Z,100858.66
2022-09-12T18:45:36.351Z,100864.59
2022-09-12T18:48:09.305Z,100860.34
2022-09-12T18:50:41.615Z,100867.53
2022-09-12T18:53:15.076Z,100864.13
2022-09-12T18:55:47.369Z,100860.28
2022-09-12T18:58:22.635Z,100860.28
2022-09-12T19:00:55.104Z,100861.53
2022-09-12T19:03:27.461Z,100865.09
2022-09-12T19:06:00.092Z,100857.94
2022-09-12T19:08:33.395Z,100851.75
2022-09-12T19:11:06.176Z,100845.28
2022-09-12T19:13:40.247Z,100845.91
2022-09-12T19:16:14.016Z,100841.94
2022-09-12T19:18:50.980Z,100841.97
2022-09-12T19:21:24.745Z,100845.75
2022-09-12T19:23:58.462Z,100839.94
2022-09-12T19:26:30.907Z,100835.16
2022-09-12T19:29:03.352Z,100831.91
2022-09-12T19:31:38.117Z,100823.59
2022-09-12T19:34:11.041Z,100819.56
2022-09-12T19:36:46.397Z,100813.84
2022-09-12T19:39:19.863Z,100810.16
2022-09-12T19:41:52.286Z,100809.22
2022-09-12T19:44:27.042Z,100817.75
2022-09-12T19:47:00.673Z,100821.78
2022-09-12T19:49:36.618Z,100836.94
2022-09-12T19:52:27.088Z,100820.84
2022-09-12T19:54:59.462Z,100823.78
2022-09-12T19:57:39.540Z,100828.59
2022-09-12T20:00:16.347Z,100836.66
2022-09-12T20:02:52.108Z,100826.75
2022-09-12T20:05:27.114Z,100821.81
2022-09-12T20:08:02.225Z,100816.25
2022-09-12T20:10:52.799Z,100814.69
2022-09-12T20:13:30.901Z,100813.44
2022-09-12T20:16:22.002Z,100811.59
2022-09-12T20:18:58.186Z,100801.56
2022-09-12T20:21:42.582Z,100793.03
2022-09-12T20:24:39.483Z,100789.63
2022-09-12T20:27:12.965Z,100785.59
2022-09-12T20:29:45.303Z,100787.13
2022-09-12T20:32:20.670Z,100781.06
2022-09-12T20:34:53.207Z,100790.00
2022-09-12T20:37:28.177Z,100786.16
2022-09-12T20:40:03.578Z,100778.25
2022-09-12T20:42:36.622Z,100782.41
2022-09-12T20:45:09.137Z,100775.78
2022-09-12T20:47:41.590Z,100762.63
2022-09-12T20:50:16.065Z,100766.94
2022-09-12T20:52:50.351Z,100761.38
2022-09-12T20:55:25.877Z,100755.19
2022-09-12T20:57:58.272Z,100754.56
2022-09-12T21:00:31.314Z,100752.38
2022-09-12T21:03:03.890Z,100758.09
2022-09-12T21:05:37.286Z,100744.00
2022-09-12T21:08:10.165Z,100751.41
2022-09-12T21:10:44.525Z,100752.31
2022-09-12T21:13:17.288Z,100759.09
2022-09-12T21:15:49.933Z,100761.88
2022-09-12T21:18:22.327Z,100746.13
2022-09-12T21:20:57.835Z,100744.72
2022-09-12T21:23:30.289Z,100742.06
2022-09-12T21:26:02.986Z,100734.66
2022-09-12T21:28:36.809Z,100747.47
2022-09-12T21:31:09.220Z,100755.34
2022-09-12T21:33:41.910Z,100767.09
2022-09-12T21:36:14.293Z,100771.16
2022-09-12T21:38:46.739Z,100786.94
2022-09-12T21:41:19.011Z,100788.84
2022-09-12T21:43:51.458Z,100803.72
2022-09-12T21:46:23.856Z,100802.84
2022-09-12T21:48:58.510Z,100793.25
2022-09-12T21:51:31.290Z,100793.00
2022-09-12T21:54:03.932Z,100789.94
2022-09-12T21:56:36.214Z,100798.91
2022-09-12T21:59:08.510Z,100797.97
2022-09-12T22:01:40.859Z,100800.16
2022-09-12T22:04:13.249Z,100808.50
2022-09-12T22:06:45.517Z,100806.34
2022-09-12T22:09:17.995Z,100803.25
2022-09-12T22:11:50.242Z,100800.16
2022-09-12T22:14:22.497Z,100799.84
2022-09-12T22:16:54.760Z,100803.84
2022-09-12T22:19:27.078Z,100790.53
2022-09-12T22:22:19.907Z,100791.00
2022-09-12T22:24:52.497Z,100801.81
2022-09-12T22:27:24.994Z,100793.31
2022-09-12T22:29:57.545Z,100795.00
2022-09-12T22:32:29.816Z,100794.22
2022-09-12T22:35:02.134Z,100784.78
2022-09-12T22:37:34.517Z,100780.91
2022-09-12T22:40:06.984Z,100781.69
2022-09-12T22:42:39.401Z,100782.31
2022-09-12T22:45:11.716Z,100782.00
2022-09-12T22:47:43.983Z,100783.41
2022-09-12T22:50:16.373Z,100788.84
2022-09-12T22:52:49.095Z,100783.44
2022-09-12T22:55:21.393Z,100774.31
2022-09-12T22:57:54.355Z,100772.59
2022-09-12T23:00:28.021Z,100764.25
2022-09-12T23:03:01.515Z,100771.06
2022-09-12T23:05:36.040Z,100767.53
2022-09-12T23:08:08.530Z,100767.34
2022-09-12T23:10:40.864Z,100763.16
2022-09-12T23:13:13.352Z,100757.44
2022-09-12T23:15:45.612Z,100753.91
2022-09-12T23:18:17.907Z,100759.16
2022-09-12T23:21:16.475Z,100748.47
2022-09-12T23:23:49.066Z,100748.78
2022-09-12T23:26:22.813Z,100739.97
2022-09-12T23:28:56.608Z,100738.56
2022-09-12T23:31:30.155Z,100732.34
2022-09-12T23:34:04.569Z,100731.44
2022-09-12T23:36:36.923Z,100740.88
2022-09-12T23:39:09.436Z,100734.34
2022-09-12T23:41:41.729Z,100745.34
2022-09-12T23:44:14.117Z,100735.72
2022-09-12T23:46:48.184Z,100744.09
2022-09-12T23:49:20.710Z,100743.00
2022-09-12T23:51:52.965Z,100738.84
2022-09-12T23:54:25.394Z,100731.13
2022-09-12T23:56:57.675Z,100739.19
2022-09-12T23:59:31.012Z,100737.63
